Time,TemperatureF,DewpointF,PressureIn,WindDirection,WindDirectionDegrees,WindSpeedMPH,WindSpeedGustMPH,Humidity,HourlyPrecipIn,Conditions,Clouds,dailyrainin,SolarRadiationWatts/m^2,SoftwareType,DateUTC
2013-04-18 00:22:00,21.0,7.0,-100.00,North,3,0.0,4.0,55,0.00,,,0.00,0.000000,,2013-04-18 08:22:00,
2013-04-18 00:32:00,21.0,7.0,-100.00,North,3,0.0,4.0,55,0.00,,,0.00,0.000000,,2013-04-18 08:32:00,
2013-04-18 00:42:00,21.0,7.0,-100.00,North,3,0.0,4.0,55,0.00,,,0.00,0.000000,,2013-04-18 08:42:00,
2013-04-18 00:52:00,21.0,7.0,-100.00,North,3,0.0,4.0,55,0.00,,,0.00,0.000000,,2013-04-18 08:52:00,
2013-04-18 01:22:00,20.0,9.0,-100.00,East,88,0.0,3.0,61,0.00,,,-99.99,0.000000,,2013-04-18 09:22:00,
2013-04-18 01:32:00,20.0,9.0,-100.00,East,88,0.0,3.0,61,0.00,,,-99.99,0.000000,,2013-04-18 09:32:00,
2013-04-18 01:42:00,20.0,9.0,-100.00,East,88,0.0,3.0,61,0.00,,,-99.99,0.000000,,2013-04-18 09:42:00,
2013-04-18 01:52:00,20.0,9.0,-100.00,East,88,0.0,3.0,61,0.00,,,-99.99,0.000000,,2013-04-18 09:52:00,
2013-04-18 02:23:00,18.0,8.0,-100.00,NNE,29,0.0,3.0,65,0.00,,,0.00,0.000000,,2013-04-18 10:23:00,
2013-04-18 02:32:00,18.0,8.0,-100.00,NNE,29,0.0,3.0,65,0.00,,,0.00,0.000000,,2013-04-18 10:32:00,
2013-04-18 02:42:00,18.0,8.0,-100.00,NNE,29,0.0,3.0,65,0.00,,,0.00,0.000000,,2013-04-18 10:42:00,
2013-04-18 02:52:00,18.0,8.0,-100.00,NNE,29,0.0,3.0,65,0.00,,,0.00,0.000000,,2013-04-18 10:52:00,
2013-04-18 03:22:00,16.0,8.0,-100.00,NNE,12,0.0,4.0,70,0.00,,,0.00,0.000000,,2013-04-18 11:22:00,
2013-04-18 03:32:00,16.0,8.0,-100.00,NNE,12,0.0,4.0,70,0.00,,,0.00,0.000000,,2013-04-18 11:32:00,
2013-04-18 03:42:00,16.0,8.0,-100.00,NNE,12,0.0,4.0,70,0.00,,,0.00,0.000000,,2013-04-18 11:42:00,
2013-04-18 03:52:00,16.0,8.0,-100.00,NNE,12,0.0,4.0,70,0.00,,,0.00,0.000000,,2013-04-18 11:52:00,
2013-04-18 04:22:00,17.0,8.0,-100.00,North,6,1.0,3.0,68,0.00,,,0.00,0.000000,,2013-04-18 12:22:00,
2013-04-18 04:32:00,17.0,8.0,-100.00,North,6,1.0,3.0,68,0.00,,,0.00,0.000000,,2013-04-18 12:32:00,
2013-04-18 04:42:00,17.0,8.0,-100.00,North,6,1.0,3.0,68,0.00,,,0.00,0.000000,,2013-04-18 12:42:00,
2013-04-18 04:52:00,17.0,8.0,-100.00,North,6,1.0,3.0,68,0.00,,,0.00,0.000000,,2013-04-18 12:52:00,
2013-04-18 05:22:00,14.0,7.0,-100.00,North,358,0.0,3.0,72,0.00,,,0.00,0.000000,,2013-04-18 13:22:00,
2013-04-18 05:32:00,14.0,7.0,-100.00,North,358,0.0,3.0,72,0.00,,,0.00,0.000000,,2013-04-18 13:32:00,
2013-04-18 05:42:00,14.0,7.0,-100.00,North,358,0.0,3.0,72,0.00,,,0.00,0.000000,,2013-04-18 13:42:00,
2013-04-18 05:52:00,14.0,7.0,-100.00,North,358,0.0,3.0,72,0.00,,,0.00,0.000000,,2013-04-18 13:52:00,
2013-04-18 06:22:00,13.0,7.0,-100.00,North,353,0.0,4.0,75,0.00,,,0.00,0.000000,,2013-04-18 14:22:00,
2013-04-18 06:32:00,13.0,7.0,-100.00,North,353,0.0,4.0,75,0.00,,,0.00,0.000000,,2013-04-18 14:32:00,
2013-04-18 06:42:00,13.0,7.0,-100.00,North,353,0.0,4.0,75,0.00,,,0.00,0.000000,,2013-04-18 14:42:00,
2013-04-18 06:52:00,13.0,7.0,-100.00,North,353,0.0,4.0,75,0.00,,,0.00,0.000000,,2013-04-18 14:52:00,
2013-04-18 07:22:00,13.0,8.0,-100.00,NE,36,0.0,3.0,79,0.00,,,0.00,4.000000,,2013-04-18 15:22:00,
2013-04-18 07:33:00,13.0,8.0,-100.00,NE,36,0.0,3.0,79,0.00,,,0.00,4.000000,,2013-04-18 15:33:00,
2013-04-18 07:42:00,13.0,8.0,-100.00,NE,36,0.0,3.0,79,0.00,,,0.00,4.000000,,2013-04-18 15:42:00,
2013-04-18 07:52:00,13.0,8.0,-100.00,NE,36,0.0,3.0,79,0.00,,,0.00,4.000000,,2013-04-18 15:52:00,
2013-04-18 08:22:00,13.0,7.0,-100.00,NE,52,0.0,4.0,75,0.00,,,0.00,15.000000,,2013-04-18 16:22:00,
2013-04-18 08:33:00,13.0,7.0,-100.00,NE,52,0.0,4.0,75,0.00,,,0.00,15.000000,,2013-04-18 16:33:00,
2013-04-18 08:42:00,13.0,7.0,-100.00,NE,52,0.0,4.0,75,0.00,,,0.00,15.000000,,2013-04-18 16:42:00,
2013-04-18 08:52:00,13.0,7.0,-100.00,NE,52,0.0,4.0,75,0.00,,,0.00,15.000000,,2013-04-18 16:52:00,
2013-04-18 09:22:00,18.0,9.0,-100.00,North,351,0.0,2.0,68,0.00,,,0.00,45.000000,,2013-04-18 17:22:00,
2013-04-18 09:33:00,18.0,9.0,-100.00,North,351,0.0,2.0,68,0.00,,,0.00,45.000000,,2013-04-18 17:33:00,
2013-04-18 09:42:00,18.0,9.0,-100.00,North,351,0.0,2.0,68,0.00,,,0.00,45.000000,,2013-04-18 17:42:00,
2013-04-18 09:52:00,18.0,9.0,-100.00,North,351,0.0,2.0,68,0.00,,,0.00,45.000000,,2013-04-18 17:52:00,
2013-04-18 10:22:00,27.0,11.0,-100.00,NW,324,1.0,4.0,51,0.00,,,0.00,84.000000,,2013-04-18 18:22:00,
2013-04-18 10:32:00,27.0,11.0,-100.00,NW,324,1.0,4.0,51,0.00,,,0.00,84.000000,,2013-04-18 18:32:00,
2013-04-18 10:42:00,27.0,11.0,-100.00,NW,324,1.0,4.0,51,0.00,,,0.00,84.000000,,2013-04-18 18:42:00,
2013-04-18 10:52:00,27.0,11.0,-100.00,NW,324,1.0,4.0,51,0.00,,,0.00,84.000000,,2013-04-18 18:52:00,
2013-04-18 11:22:00,37.0,14.0,-100.00,WSW,250,1.0,4.0,39,0.00,,,0.00,260.000000,,2013-04-18 19:22:00,
2013-04-18 11:32:00,37.0,14.0,-100.00,WSW,250,1.0,4.0,39,0.00,,,0.00,260.000000,,2013-04-18 19:32:00,
2013-04-18 11:42:00,37.0,14.0,-100.00,WSW,250,1.0,4.0,39,0.00,,,0.00,260.000000,,2013-04-18 19:42:00,
2013-04-18 11:52:00,37.0,14.0,-100.00,WSW,250,1.0,4.0,39,0.00,,,0.00,260.000000,,2013-04-18 19:52:00,
2013-04-18 12:22:00,42.0,16.0,-100.00,WSW,237,2.0,4.0,34,0.00,,,0.00,652.000000,,2013-04-18 20:22:00,
2013-04-18 12:32:00,42.0,16.0,-100.00,WSW,237,2.0,4.0,34,0.00,,,0.00,652.000000,,2013-04-18 20:32:00,
2013-04-18 12:42:00,42.0,16.0,-100.00,WSW,237,2.0,4.0,34,0.00,,,0.00,652.000000,,2013-04-18 20:42:00,
2013-04-18 12:52:00,42.0,16.0,-100.00,WSW,237,2.0,4.0,34,0.00,,,0.00,652.000000,,2013-04-18 20:52:00,
2013-04-18 13:22:00,45.0,15.0,-100.00,WSW,248,2.0,4.0,30,0.00,,,0.00,735.000000,,2013-04-18 21:22:00,
2013-04-18 13:52:00,45.0,15.0,-100.00,WSW,248,2.0,4.0,30,0.00,,,0.00,735.000000,,2013-04-18 21:52:00,
2013-04-18 14:22:00,47.0,13.0,-100.00,WSW,249,1.0,6.0,25,0.00,,,0.00,773.000000,,2013-04-18 22:22:00,
2013-04-18 14:32:00,47.0,13.0,-100.00,WSW,249,1.0,6.0,25,0.00,,,0.00,773.000000,,2013-04-18 22:32:00,
2013-04-18 14:42:00,47.0,13.0,-100.00,WSW,249,1.0,6.0,25,0.00,,,0.00,773.000000,,2013-04-18 22:42:00,
2013-04-18 14:52:00,47.0,13.0,-100.00,WSW,249,1.0,6.0,25,0.00,,,0.00,773.000000,,2013-04-18 22:52:00,
2013-04-18 15:42:00,49.0,15.0,-100.00,West,263,2.0,6.0,25,0.00,,,0.00,765.000000,,2013-04-18 23:42:00,
2013-04-18 15:52:00,49.0,15.0,-100.00,West,263,2.0,6.0,25,0.00,,,0.00,765.000000,,2013-04-18 23:52:00,
2013-04-18 16:21:00,46.0,13.0,-100.00,West,280,2.0,10.0,26,-99.99,,,0.00,645.000000,,2013-04-19 00:21:00,
2013-04-18 16:32:00,46.0,13.0,-100.00,West,280,2.0,10.0,26,-99.99,,,0.00,645.000000,,2013-04-19 00:32:00,
2013-04-18 16:42:00,46.0,13.0,-100.00,West,280,2.0,10.0,26,-99.99,,,0.00,645.000000,,2013-04-19 00:42:00,
2013-04-18 16:51:00,46.0,13.0,-100.00,West,280,2.0,10.0,26,-99.99,,,0.00,645.000000,,2013-04-19 00:51:00,
2013-04-18 17:21:00,44.0,13.0,-100.00,West,263,2.0,6.0,28,0.00,,,0.00,587.000000,,2013-04-19 01:21:00,
2013-04-18 17:31:00,44.0,13.0,-100.00,West,263,2.0,6.0,28,0.00,,,0.00,587.000000,,2013-04-19 01:31:00,
2013-04-18 17:42:00,44.0,13.0,-100.00,West,263,2.0,6.0,28,0.00,,,0.00,587.000000,,2013-04-19 01:42:00,
2013-04-18 17:52:00,44.0,13.0,-100.00,West,263,2.0,6.0,28,0.00,,,0.00,587.000000,,2013-04-19 01:52:00,
2013-04-18 18:21:00,41.0,12.0,-100.00,WNW,289,2.0,6.0,30,0.00,,,0.00,85.000000,,2013-04-19 02:21:00,
2013-04-18 18:32:00,41.0,12.0,-100.00,WNW,289,2.0,6.0,30,0.00,,,0.00,85.000000,,2013-04-19 02:32:00,
2013-04-18 18:42:00,41.0,12.0,-100.00,WNW,289,2.0,6.0,30,0.00,,,0.00,85.000000,,2013-04-19 02:42:00,
2013-04-18 18:51:00,41.0,12.0,-100.00,WNW,289,2.0,6.0,30,0.00,,,0.00,85.000000,,2013-04-19 02:51:00,
2013-04-18 19:21:00,42.0,16.0,-100.00,WNW,283,2.0,7.0,34,0.00,,,0.00,210.000000,,2013-04-19 03:21:00,
2013-04-18 19:32:00,42.0,16.0,-100.00,WNW,283,2.0,7.0,34,0.00,,,0.00,210.000000,,2013-04-19 03:32:00,
2013-04-18 19:43:00,42.0,16.0,-100.00,WNW,283,2.0,7.0,34,0.00,,,0.00,210.000000,,2013-04-19 03:43:00,
2013-04-18 19:53:00,42.0,16.0,-100.00,WNW,283,2.0,7.0,34,0.00,,,0.00,210.000000,,2013-04-19 03:53:00,
2013-04-18 20:23:00,38.0,11.0,-100.00,West,278,2.0,7.0,33,0.00,,,0.00,99.000000,,2013-04-19 04:23:00,
2013-04-18 20:33:00,38.0,11.0,-100.00,West,278,2.0,7.0,33,0.00,,,0.00,99.000000,,2013-04-19 04:33:00,
2013-04-18 20:43:00,38.0,11.0,-100.00,West,278,2.0,7.0,33,0.00,,,0.00,99.000000,,2013-04-19 04:43:00,
2013-04-18 20:52:00,38.0,11.0,-100.00,West,278,2.0,7.0,33,0.00,,,0.00,99.000000,,2013-04-19 04:52:00,
2013-04-18 21:22:00,33.0,10.0,-100.00,North,7,1.0,4.0,37,0.00,,,0.00,32.000000,,2013-04-19 05:22:00,
2013-04-18 21:32:00,33.0,10.0,-100.00,North,7,1.0,4.0,37,0.00,,,0.00,32.000000,,2013-04-19 05:32:00,
2013-04-18 21:42:00,33.0,10.0,-100.00,North,7,1.0,4.0,37,0.00,,,0.00,32.000000,,2013-04-19 05:42:00,
2013-04-18 21:51:00,33.0,10.0,-100.00,North,7,1.0,4.0,37,0.00,,,0.00,32.000000,,2013-04-19 05:51:00,
2013-04-18 22:22:00,28.0,11.0,-100.00,NE,53,0.0,4.0,48,0.00,,,0.00,5.000000,,2013-04-19 06:22:00,
2013-04-18 22:32:00,28.0,11.0,-100.00,NE,53,0.0,4.0,48,0.00,,,0.00,5.000000,,2013-04-19 06:32:00,
2013-04-18 22:42:00,28.0,11.0,-100.00,NE,53,0.0,4.0,48,0.00,,,0.00,5.000000,,2013-04-19 06:42:00,
2013-04-18 22:52:00,28.0,11.0,-100.00,NE,53,0.0,4.0,48,0.00,,,0.00,5.000000,,2013-04-19 06:52:00,
2013-04-18 23:21:00,25.0,12.0,-100.00,North,7,0.0,2.0,57,0.00,,,0.00,0.000000,,2013-04-19 07:21:00,
2013-04-18 23:32:00,25.0,12.0,-100.00,North,7,0.0,2.0,57,0.00,,,0.00,0.000000,,2013-04-19 07:32:00,
2013-04-18 23:42:00,25.0,12.0,-100.00,North,7,0.0,2.0,57,0.00,,,0.00,0.000000,,2013-04-19 07:42:00,
2013-04-18 23:52:00,25.0,12.0,-100.00,North,7,0.0,2.0,57,0.00,,,0.00,0.000000,,2013-04-19 07:52:00,